Mount Desert, Maine
Current Conditions -  °F | °C
As of 10:35 PM on Saturday 22 Nov 2014 (Local Time) from KBHB Reporting Station
Overcast Overcast  
Wind Chill: 37°   Ceiling: 5000
Heat Index: 43°   Visibility: 10mi
Dew Point: 23°   Wind: 10mph
Humidity: 46%   Direction: 240°WSW
Pressure: 29.91"   Gusts: 23mph
Location:  44.36°N, 68.33°W
Report Text: KBHB 230335Z AUTO 24009G20KT 10SM OVC050 06/M05 A2991 RMK AO1
Loading
Personal Weather Stations






























Interactive Weather Map New forecast layout! Learn more

10-Day Weather Forecast

Advertisements
Track Severe Weather on mobile